Flight Track Log - Related Links

Times and Time Zones

All times are in EST time to prevent confusion due to time zone crossing. See the N9205P flight status page for this flight to view local times or setup timezone preferences in your user account.

Time Position Orientation Groundspeed Altitude Reporting Facility
EST Latitude Longitude Course Direction KTS MPH feet Rate Location/Type
Fri 11:20:35 AM 30.8178 -96.2483 28° Northeast 107 123 3,700  Level Houston Center
Fri 11:21:36 AM 30.8456 -96.2306 29° Northeast 112 129 4,400 653 Climbing Houston Center
Fri 11:22:16 AM 30.8678 -96.2200 22° Northeast 114 131 4,800 590 Climbing Houston Center
Fri 11:22:37 AM 30.8756 -96.2150 29° Northeast 112 129 5,000 677 Climbing Houston Center
Fri 11:23:18 AM 30.8944 -96.2039 27° Northeast 110 127 5,500 583 Climbing Houston Center
Fri 11:24:20 AM 30.9231 -96.1883 25° Northeast 112 129 6,000 581 Climbing Houston Center
Fri 11:25:22 AM 30.9525 -96.1719 26° Northeast 115 132 6,700 581 Climbing Houston Center
Fri 11:26:24 AM 30.9806 -96.1542 29° Northeast 116 133 7,200 387 Climbing Houston Center
Fri 11:27:26 AM 31.0128 -96.1389 22° Northeast 121 139 7,500 145 Climbing Houston Center
Fri 11:28:28 AM 31.0469 -96.1156 30° Northeast 137 158 7,500  Level Houston Center
Fri 11:29:30 AM 31.0922 -96.0872 28° Northeast 153 176 7,500  Level Houston Center
Fri 11:30:32 AM 31.1300 -96.0642 28° Northeast 156 180 7,500  Level Houston Center
Fri 11:31:34 AM 31.1694 -96.0397 28° Northeast 160 184 7,500  Level Houston Center
Fri 11:32:36 AM 31.2100 -96.0175 25° Northeast 161 185 7,500  Level Houston Center
Fri 11:33:38 AM 31.2489 -95.9936 28° Northeast 158 182 7,500  Level Houston Center
Fri 11:34:40 AM 31.2886 -95.9697 27° Northeast 159 183 7,500  Level Houston Center
Fri 11:35:42 AM 31.3369 -95.9411 27° Northeast 161 185 7,500  Level Houston Center
Fri 11:36:44 AM 31.3756 -95.9181 27° Northeast 158 182 7,500  Level Houston Center
Fri 11:37:46 AM 31.4158 -95.8944 27° Northeast 160 184 7,500  Level Houston Center
Fri 11:38:48 AM 31.4564 -95.8714 26° Northeast 161 185 7,500  Level Houston Center
Fri 11:39:50 AM 31.4972 -95.8486 25° Northeast 160 184 7,500  Level Houston Center
Fri 11:40:52 AM 31.5381 -95.8247 27° Northeast 163 188 7,500  Level Houston Center
Fri 11:41:54 AM 31.5853 -95.7961 27° Northeast 161 185 7,500  Level Houston Center
Fri 11:42:56 AM 31.6258 -95.7711 28° Northeast 162 186 7,500  Level Houston Center
Fri 11:43:59 AM 31.6681 -95.7481 25° Northeast 165 190 7,500  Level Houston Center
Fri 11:44:54 AM 31.7006 -95.7278 28° Northeast 161 185 7,500  Level Fort Worth Center
Fri 11:45:56 AM 31.7492 -95.6997 26° Northeast 162 186 7,500  Level Fort Worth Center
Fri 11:46:58 AM 31.7903 -95.6775 25° Northeast 162 186 7,500  Level Fort Worth Center
Fri 11:48:00 AM 31.8322 -95.6536 26° Northeast 166 191 7,500  Level Fort Worth Center
Fri 11:49:02 AM 31.8717 -95.6283 29° Northeast 163 188 7,500  Level Fort Worth Center
Fri 11:50:04 AM 31.9122 -95.6061 25° Northeast 161 185 7,500  Level Fort Worth Center
Fri 11:51:06 AM 31.9533 -95.5806 28° Northeast 165 190 7,500  Level Fort Worth Center
Fri 11:52:08 AM 32.0025 -95.5514 27° Northeast 164 189 7,500  Level Fort Worth Center
Fri 11:53:10 AM 32.0433 -95.5267 27° Northeast 164 189 7,500  Level Fort Worth Center
Fri 11:54:12 AM 32.0844 -95.5017 27° Northeast 166 191 7,500  Level Fort Worth Center
Fri 11:55:14 AM 32.1244 -95.4769 28° Northeast 163 188 7,500  Level Fort Worth Center
Fri 11:56:17 AM 32.1653 -95.4517 28° Northeast 163 188 7,500  Level Fort Worth Center
Fri 11:57:19 AM 32.2050 -95.4275 27° Northeast 161 185 7,500 -48 Level Fort Worth Center
Fri 11:58:21 AM 32.2489 -95.4019 26° Northeast 166 191 7,400 -48 Descending Fort Worth Center
Fri 11:59:23 AM 32.2878 -95.3767 29° Northeast 161 185 7,400  Level Fort Worth Center
Fri 12:00:25 PM 32.3350 -95.3464 28° Northeast 160 184 7,400 -145 Level Fort Worth Center
Fri 12:01:27 PM 32.3783 -95.3222 25° Northeast 171 197 7,100 -242 Descending Fort Worth Center
Fri 12:02:29 PM 32.4228 -95.2953 27° Northeast 179 206 6,900 -48 Descending Fort Worth Center
Fri 12:03:31 PM 32.4653 -95.2694 27° Northeast 173 199 7,000 48 Climbing Fort Worth Center
Fri 12:04:33 PM 32.5083 -95.2442 26° Northeast 166 191 7,000  Level Fort Worth Center
Fri 12:05:35 PM 32.5506 -95.2167 29° Northeast 171 197 7,000 145 Level Fort Worth Center
Fri 12:06:37 PM 32.5906 -95.1925 27° Northeast 165 190 7,300 290 Climbing Fort Worth Center
Fri 12:07:39 PM 32.6289 -95.1708 25° Northeast 154 177 7,600 97 Climbing Fort Worth Center
Fri 12:08:41 PM 32.6778 -95.1403 28° Northeast 165 190 7,500 -48 Descending Fort Worth Center
Fri 12:09:43 PM 32.7194 -95.1158 26° Northeast 168 193 7,500  Level Fort Worth Center
Fri 12:10:45 PM 32.7617 -95.0919 25° Northeast 168 193 7,500  Level Fort Worth Center
Fri 12:11:48 PM 32.8044 -95.0667 26° Northeast 171 197 7,500  Level Fort Worth Center
Fri 12:12:50 PM 32.8481 -95.0419 25° Northeast 173 199 7,500  Level Fort Worth Center
Fri 12:13:52 PM 32.8908 -95.0167 26° Northeast 172 198 7,500  Level Fort Worth Center
Fri 12:14:54 PM 32.9425 -94.9856 27° Northeast 174 200 7,500  Level Fort Worth Center
Fri 12:15:56 PM 32.9850 -94.9597 27° Northeast 172 198 7,500  Level Fort Worth Center
Fri 12:16:58 PM 33.0272 -94.9333 28° Northeast 172 198 7,500  Level Fort Worth Center
Fri 12:18:00 PM 33.0703 -94.9078 26° Northeast 172 198 7,500  Level Fort Worth Center
Fri 12:19:02 PM 33.1119 -94.8789 30° Northeast 174 200 7,500  Level Fort Worth Center
Fri 12:20:04 PM 33.1533 -94.8514 29° Northeast 172 198 7,500  Level Fort Worth Center
Fri 12:21:06 PM 33.2039 -94.8206 27° Northeast 170 196 7,500  Level Fort Worth Center
Fri 12:22:08 PM 33.2467 -94.7944 27° Northeast 171 197 7,500 -48 Level Fort Worth Center
Fri 12:23:10 PM 33.2889 -94.7681 28° Northeast 171 197 7,400 -48 Descending Fort Worth Center
Fri 12:24:12 PM 33.3325 -94.7433 25° Northeast 172 198 7,400  Level Fort Worth Center
Fri 12:25:14 PM 33.3736 -94.7158 29° Northeast 171 197 7,400  Level Fort Worth Center
Fri 12:26:17 PM 33.4150 -94.6886 29° Northeast 170 196 7,400  Level Fort Worth Center
Fri 12:27:19 PM 33.4653 -94.6575 27° Northeast 169 194 7,400 48 Level Fort Worth Center
Fri 12:28:21 PM 33.5072 -94.6300 29° Northeast 170 196 7,500 48 Climbing Fort Worth Center
Fri 12:29:23 PM 33.5481 -94.6025 29° Northeast 170 196 7,500  Level Fort Worth Center
Fri 12:30:25 PM 33.5886 -94.5739 30° Northeast 169 194 7,500  Level Fort Worth Center
Fri 12:31:27 PM 33.6308 -94.5486 26° Northeast 169 194 7,500  Level Fort Worth Center
Fri 12:32:29 PM 33.6731 -94.5242 26° Northeast 169 194 7,500  Level Fort Worth Center
Fri 12:33:31 PM 33.7225 -94.4914 29° Northeast 168 193 7,500  Level Fort Worth Center
Fri 12:34:33 PM 33.7628 -94.4614 32° Northeast 169 194 7,500 -48 Level Fort Worth Center
Fri 12:35:35 PM 33.8044 -94.4339 29° Northeast 170 196 7,400 -48 Descending Fort Worth Center
Fri 12:36:37 PM 33.8467 -94.4078 27° Northeast 170 196 7,400  Level Fort Worth Center
Fri 12:37:39 PM 33.8878 -94.3814 28° Northeast 169 194 7,400  Level Fort Worth Center
Fri 12:38:42 PM 33.9308 -94.3556 26° Northeast 171 197 7,400  Level Fort Worth Center
Fri 12:39:44 PM 33.9722 -94.3289 28° Northeast 169 194 7,400  Level Fort Worth Center
Fri 12:40:46 PM 34.0236 -94.2983 26° Northeast 171 197 7,400  Level Fort Worth Center
Fri 12:41:48 PM 34.0664 -94.2722 27° Northeast 171 197 7,400  Level Fort Worth Center
Fri 12:42:50 PM 34.1094 -94.2472 26° Northeast 171 197 7,400  Level Fort Worth Center
Fri 12:43:52 PM 34.1522 -94.2192 28° Northeast 173 199 7,400  Level Fort Worth Center
Fri 12:44:54 PM 34.1950 -94.1925 27° Northeast 174 200 7,400  Level Fort Worth Center
Fri 12:45:56 PM 34.2392 -94.1667 26° Northeast 175 201 7,400  Level Fort Worth Center
Fri 12:46:58 PM 34.2903 -94.1328 29° Northeast 175 201 7,400 48 Level Fort Worth Center
Fri 12:48:00 PM 34.3342 -94.1047 28° Northeast 177 204 7,500 48 Climbing Fort Worth Center
Fri 12:49:02 PM 34.3778 -94.0769 28° Northeast 177 204 7,500  Level Fort Worth Center
Fri 12:50:04 PM 34.4206 -94.0489 28° Northeast 176 203 7,500  Level Fort Worth Center
Fri 12:51:06 PM 34.4647 -94.0217 27° Northeast 177 204 7,500  Level Fort Worth Center
Fri 12:52:09 PM 34.5164 -93.9889 28° Northeast 175 201 7,500  Level Fort Worth Center
Fri 12:53:11 PM 34.5608 -93.9614 27° Northeast 178 205 7,500  Level Fort Worth Center
Fri 12:54:13 PM 34.6064 -93.9353 25° Northeast 175 201 7,500  Level Fort Worth Center
Fri 12:55:15 PM 34.6519 -93.9072 27° Northeast 176 203 7,500  Level Fort Worth Center
Fri 12:56:17 PM 34.6975 -93.8783 28° Northeast 176 203 7,500  Level Fort Worth Center
Fri 12:57:19 PM 34.7428 -93.8492 28° Northeast 175 201 7,500  Level Fort Worth Center
Fri 12:58:21 PM 34.7853 -93.8247 25° Northeast 175 201 7,500  Level Fort Worth Center
Fri 12:59:23 PM 34.8297 -93.7956 28° Northeast 174 200 7,500  Level Fort Worth Center
Fri 01:00:25 PM 34.8756 -93.7672 27° Northeast 175 201 7,500 -40 Level Fort Worth Center
Fri 01:01:52 PM 34.9397 -93.7269 27° Northeast 176 203 7,400 -40 Descending Memphis Center
Fri 01:02:54 PM 34.9833 -93.7006 26° Northeast 176 203 7,400  Level Memphis Center
Fri 01:03:56 PM 35.0258 -93.6728 28° Northeast 174 200 7,400  Level Memphis Center
Fri 01:04:57 PM 35.0689 -93.6458 27° Northeast 175 201 7,400  Level Memphis Center
Fri 01:05:59 PM 35.1122 -93.6183 27° Northeast 175 201 7,400  Level Memphis Center
Fri 01:07:01 PM 35.1558 -93.5919 26° Northeast 174 200 7,400  Level Memphis Center
Fri 01:08:03 PM 35.1986 -93.5639 28° Northeast 174 200 7,400  Level Memphis Center
Fri 01:09:05 PM 35.2489 -93.5278 30° Northeast 175 201 7,400  Level Memphis Center
Fri 01:10:06 PM 35.2917 -93.5000 28° Northeast 174 200 7,400  Level Memphis Center
Fri 01:11:08 PM 35.3344 -93.4733 27° Northeast 173 199 7,400  Level Memphis Center
Fri 01:12:10 PM 35.3767 -93.4458 28° Northeast 173 199 7,400  Level Memphis Center
Fri 01:13:12 PM 35.4181 -93.4161 30° Northeast 172 198 7,400  Level Memphis Center
Fri 01:14:14 PM 35.4611 -93.3903 26° Northeast 172 198 7,400  Level Memphis Center
Fri 01:15:15 PM 35.5044 -93.3639 26° Northeast 172 198 7,400  Level Memphis Center
Fri 01:16:17 PM 35.5464 -93.3358 29° Northeast 172 198 7,400  Level Memphis Center
Fri 01:17:19 PM 35.5972 -93.3028 28° Northeast 172 198 7,400  Level Memphis Center
Fri 01:18:21 PM 35.6394 -93.2750 28° Northeast 172 198 7,400 48 Level Memphis Center
Fri 01:19:23 PM 35.6817 -93.2478 28° Northeast 171 197 7,500  Climbing Memphis Center
Fri 01:20:24 PM 35.7228 -93.2203 29° Northeast 170 196 7,400 -49 Descending Memphis Center
Fri 01:21:26 PM 35.7642 -93.1914 30° Northeast 170 196 7,400  Level Memphis Center
Fri 01:22:28 PM 35.8069 -93.1639 28° Northeast 171 197 7,400  Level Memphis Center
Fri 01:23:30 PM 35.8494 -93.1356 28° Northeast 172 198 7,400  Level Memphis Center
Fri 01:24:32 PM 35.8914 -93.1067 29° Northeast 172 198 7,400  Level Memphis Center
Fri 01:25:33 PM 35.9414 -93.0742 28° Northeast 171 197 7,400  Level Memphis Center
Fri 01:26:35 PM 35.9831 -93.0447 30° Northeast 171 197 7,400  Level Memphis Center
Fri 01:27:37 PM 36.0236 -93.0142 31° Northeast 171 197 7,400  Level Memphis Center
Fri 01:28:39 PM 36.0656 -92.9847 30° Northeast 172 198 7,400  Level Memphis Center
Fri 01:29:40 PM 36.1069 -92.9561 29° Northeast 171 197 7,400  Level Memphis Center
Fri 01:30:42 PM 36.1489 -92.9272 29° Northeast 171 197 7,400 48 Level Memphis Center
Fri 01:31:44 PM 36.1914 -92.9003 27° Northeast 172 198 7,500  Climbing Memphis Center
Fri 01:32:46 PM 36.2422 -92.8678 27° Northeast 172 198 7,400 -49 Descending Memphis Center
Fri 01:33:47 PM 36.2842 -92.8397 28° Northeast 172 198 7,400  Level Memphis Center
Fri 01:34:49 PM 36.3267 -92.8136 26° Northeast 171 197 7,400  Level Memphis Center
Fri 01:35:51 PM 36.3678 -92.7825 31° Northeast 172 198 7,400  Level Memphis Center
Fri 01:36:53 PM 36.4089 -92.7561 27° Northeast 169 194 7,400  Level Memphis Center
Fri 01:37:54 PM 36.4494 -92.7261 31° Northeast 168 193 7,400  Level Memphis Center
Fri 01:38:56 PM 36.4942 -92.6975 27° Northeast 168 193 7,400  Level Memphis Center
Fri 01:39:58 PM 36.5339 -92.6667 32° Northeast 168 193 7,400  Level Memphis Center
Fri 01:41:00 PM 36.5744 -92.6411 27° Northeast 165 190 7,400  Level Memphis Center
Fri 01:42:02 PM 36.6147 -92.6106 31° Northeast 167 192 7,400  Level Memphis Center
Fri 01:42:40 PM 36.6478 -92.5903 26° Northeast 166 191 7,400  Level Kansas City Center
Fri 01:43:41 PM 36.6886 -92.5644 27° Northeast 165 190 7,400  Level Kansas City Center
Fri 01:44:43 PM 36.7286 -92.5381 28° Northeast 163 188 7,400  Level Kansas City Center
Fri 01:45:45 PM 36.7678 -92.5094 30° Northeast 162 186 7,400  Level Kansas City Center
Fri 01:46:47 PM 36.8078 -92.4811 30° Northeast 164 189 7,400  Level Kansas City Center
Fri 01:47:49 PM 36.8478 -92.4542 28° Northeast 163 188 7,400  Level Kansas City Center
Fri 01:48:50 PM 36.8861 -92.4272 29° Northeast 161 185 7,400  Level Kansas City Center
Fri 01:49:52 PM 36.9350 -92.3964 27° Northeast 162 186 7,400  Level Kansas City Center
Fri 01:50:54 PM 36.9742 -92.3683 30° Northeast 162 186 7,400  Level Kansas City Center
Fri 01:51:56 PM 37.0139 -92.3397 30° Northeast 163 188 7,400  Level Kansas City Center
Fri 01:52:57 PM 37.0528 -92.3106 31° Northeast 163 188 7,400 49 Level Kansas City Center
Fri 01:53:59 PM 37.0931 -92.2828 29° Northeast 164 189 7,500  Climbing Kansas City Center
Fri 01:55:01 PM 37.1333 -92.2533 30° Northeast 165 190 7,400 -48 Descending Kansas City Center
Fri 01:56:03 PM 37.1733 -92.2253 29° Northeast 165 190 7,400  Level Kansas City Center
Fri 01:57:04 PM 37.2139 -92.1969 29° Northeast 166 191 7,400  Level Kansas City Center
Fri 01:58:06 PM 37.2628 -92.1631 29° Northeast 166 191 7,400 48 Level Kansas City Center
Fri 01:59:08 PM 37.3036 -92.1358 28° Northeast 166 191 7,500  Climbing Kansas City Center
Fri 02:00:09 PM 37.3431 -92.1075 30° Northeast 165 190 7,400  Descending Kansas City Center
Fri 02:01:11 PM 37.3839 -92.0797 28° Northeast 165 190 7,500 48 Climbing Kansas City Center
Fri 02:02:13 PM 37.4258 -92.0525 27° Northeast 167 192 7,500  Level Kansas City Center
Fri 02:03:15 PM 37.4664 -92.0236 29° Northeast 168 193 7,500 49 Level Kansas City Center
Fri 02:04:16 PM 37.5061 -91.9928 32° Northeast 167 192 7,600  Climbing Kansas City Center
Fri 02:05:18 PM 37.5475 -91.9642 29° Northeast 169 194 7,500 -48 Descending Kansas City Center
Fri 02:06:20 PM 37.5967 -91.9294 29° Northeast 169 194 7,500 48 Level Kansas City Center
Fri 02:07:22 PM 37.6367 -91.9003 30° Northeast 167 192 7,600 48 Climbing Kansas City Center
Fri 02:08:24 PM 37.6778 -91.8700 30° Northeast 169 194 7,600  Level Kansas City Center
Fri 02:09:25 PM 37.7186 -91.8425 28° Northeast 168 193 7,600 -49 Level Kansas City Center
Fri 02:10:27 PM 37.7597 -91.8133 29° Northeast 168 193 7,500  Descending Kansas City Center
Fri 02:11:29 PM 37.7992 -91.7828 31° Northeast 168 193 7,600 48 Climbing Kansas City Center
Fri 02:12:31 PM 37.8392 -91.7542 29° Northeast 165 190 7,600  Level Kansas City Center
Fri 02:13:32 PM 37.8883 -91.7194 29° Northeast 168 193 7,600 -49 Level Kansas City Center
Fri 02:14:34 PM 37.9300 -91.6914 28° Northeast 169 194 7,500 -48 Descending Kansas City Center
Fri 02:15:36 PM 37.9706 -91.6611 30° Northeast 170 196 7,500  Level Kansas City Center
Fri 02:16:37 PM 38.0106 -91.6322 30° Northeast 167 192 7,500  Level Kansas City Center
Fri 02:17:39 PM 38.0497 -91.6031 30° Northeast 164 189 7,500 -48 Level Kansas City Center
Fri 02:18:41 PM 38.0911 -91.5758 27° Northeast 166 191 7,400 -49 Descending Kansas City Center
Fri 02:19:42 PM 38.1311 -91.5472 29° Northeast 165 190 7,400 49 Level Kansas City Center
Fri 02:20:44 PM 38.1714 -91.5200 28° Northeast 164 189 7,500 97 Climbing Kansas City Center
Fri 02:21:46 PM 38.2200 -91.4872 28° Northeast 164 189 7,600 49 Climbing Kansas City Center
Fri 02:22:47 PM 38.2606 -91.4600 28° Northeast 165 190 7,600  Level Kansas City Center
Fri 02:23:49 PM 38.3006 -91.4322 29° Northeast 164 189 7,600  Level Kansas City Center
Fri 02:24:51 PM 38.3408 -91.4056 27° Northeast 163 188 7,600 -49 Level Kansas City Center
Fri 02:25:52 PM 38.3764 -91.3803 29° Northeast 164 189 7,500  Descending Kansas City Center
Fri 02:26:54 PM 38.4244 -91.3447 30° Northeast 166 191 7,600 48 Climbing Kansas City Center
Fri 02:27:56 PM 38.4647 -91.3169 28° Northeast 165 190 7,600  Level Kansas City Center
Fri 02:28:57 PM 38.5039 -91.2872 31° Northeast 164 189 7,600  Level Kansas City Center
Fri 02:29:59 PM 38.5447 -91.2581 29° Northeast 167 192 7,600 -49 Level Kansas City Center
Fri 02:31:00 PM 38.5842 -91.2306 29° Northeast 164 189 7,500  Descending Kansas City Center
Fri 02:32:02 PM 38.6253 -91.2022 28° Northeast 166 191 7,600 48 Climbing Kansas City Center
Fri 02:33:04 PM 38.6656 -91.1739 29° Northeast 165 190 7,600  Level Kansas City Center
Fri 02:34:05 PM 38.7072 -91.1444 29° Northeast 169 194 7,600  Level Kansas City Center
Fri 02:35:07 PM 38.7558 -91.1086 30° Northeast 168 193 7,600  Level Kansas City Center
Fri 02:36:09 PM 38.7972 -91.0803 28° Northeast 169 194 7,600  Level Kansas City Center
Fri 02:37:10 PM 38.8383 -91.0519 28° Northeast 168 193 7,600 -49 Level Kansas City Center
Fri 02:38:12 PM 38.8786 -91.0225 30° Northeast 167 192 7,500 -48 Descending Kansas City Center
Fri 02:39:14 PM 38.9178 -90.9911 32° Northeast 166 191 7,500  Level Kansas City Center
Fri 02:40:15 PM 38.9575 -90.9606 31° Northeast 166 191 7,500  Level Kansas City Center
Fri 02:41:17 PM 38.9969 -90.9297 31° Northeast 166 191 7,500  Level Kansas City Center
Fri 02:42:19 PM 39.0378 -90.9019 28° Northeast 166 191 7,500  Level Kansas City Center
Fri 02:43:20 PM 39.0864 -90.8669 29° Northeast 166 191 7,500  Level Kansas City Center
Fri 02:44:22 PM 39.1264 -90.8375 30° Northeast 166 191 7,500  Level Kansas City Center
Fri 02:45:23 PM 39.1667 -90.8083 29° Northeast 166 191 7,500  Level Kansas City Center
Fri 02:46:25 PM 39.2069 -90.7786 30° Northeast 166 191 7,500  Level Kansas City Center
Fri 02:47:27 PM 39.2486 -90.7494 28° Northeast 169 194 7,500  Level Kansas City Center
Fri 02:48:28 PM 39.2886 -90.7197 30° Northeast 167 192 7,500  Level Kansas City Center
Fri 02:49:30 PM 39.3283 -90.6903 30° Northeast 166 191 7,500 48 Level Kansas City Center
Fri 02:50:32 PM 39.3689 -90.6603 30° Northeast 167 192 7,600 49 Climbing Kansas City Center
Fri 02:51:33 PM 39.4178 -90.6261 28° Northeast 167 192 7,600 -49 Level Kansas City Center
Fri 02:52:35 PM 39.4578 -90.5972 29° Northeast 166 191 7,500 -98 Descending Kansas City Center
Fri 02:53:36 PM 39.4981 -90.5681 29° Northeast 165 190 7,400 -49 Descending Kansas City Center
Fri 02:54:38 PM 39.5378 -90.5369 31° Northeast 167 192 7,400  Level Kansas City Center
Fri 02:55:39 PM 39.5778 -90.5092 28° Northeast 164 189 7,400  Level Kansas City Center
Fri 02:56:41 PM 39.6175 -90.4792 30° Northeast 165 190 7,400  Level Kansas City Center
Fri 02:57:43 PM 39.6572 -90.4486 31° Northeast 166 191 7,400  Level Kansas City Center
Fri 02:58:44 PM 39.6964 -90.4192 30° Northeast 164 189 7,400  Level Kansas City Center
Fri 02:59:46 PM 39.7397 -90.3881 29° Northeast 164 189 7,400  Level Kansas City Center
Fri 03:00:47 PM 39.7786 -90.3586 30° Northeast 163 188 7,400  Level Kansas City Center
Fri 03:01:49 PM 39.8181 -90.3294 30° Northeast 163 188 7,400  Level Kansas City Center
Fri 03:02:50 PM 39.8664 -90.2964 28° Northeast 164 189 7,400 49 Level Kansas City Center
Fri 03:03:52 PM 39.9047 -90.2675 30° Northeast 161 185 7,500 49 Climbing Kansas City Center
Fri 03:04:53 PM 39.9450 -90.2389 29° Northeast 162 186 7,500 49 Level Kansas City Center
Fri 03:05:55 PM 39.9850 -90.2111 28° Northeast 163 188 7,600  Climbing Kansas City Center
Fri 03:06:57 PM 40.0236 -90.1789 33° Northeast 164 189 7,500 -49 Descending Kansas City Center
Fri 03:07:58 PM 40.0631 -90.1497 30° Northeast 164 189 7,500  Level Kansas City Center
Fri 03:09:00 PM 40.1042 -90.1200 29° Northeast 167 192 7,500 49 Level Kansas City Center
Fri 03:10:01 PM 40.1431 -90.0900 31° Northeast 164 189 7,600  Climbing Kansas City Center
Fri 03:11:03 PM 40.1911 -90.0511 32° Northeast 168 193 7,500 -49 Descending Kansas City Center
Fri 03:12:04 PM 40.2292 -90.0169 34° Northeast 167 192 7,500 49 Level Kansas City Center
Fri 03:13:06 PM 40.2700 -89.9878 29° Northeast 167 192 7,600  Climbing Kansas City Center
Fri 03:14:07 PM 40.3094 -89.9564 31° Northeast 166 191 7,500 -49 Descending Kansas City Center
Fri 03:15:09 PM 40.3492 -89.9236 32° Northeast 167 192 7,500  Level Kansas City Center
Fri 03:15:56 PM 40.3800 -89.8992 31° Northeast 167 192 7,500  Level Chicago Center
Fri 03:16:57 PM 40.4203 -89.8694 29° Northeast 166 191 7,500  Level Chicago Center
Fri 03:17:59 PM 40.4603 -89.8378 31° Northeast 167 192 7,500  Level Chicago Center
Fri 03:19:00 PM 40.4997 -89.8072 30° Northeast 165 190 7,500 49 Level Chicago Center
Fri 03:20:02 PM 40.5475 -89.7714 30° Northeast 166 191 7,600 49 Climbing Chicago Center
Fri 03:21:03 PM 40.5883 -89.7422 28° Northeast 167 192 7,600 -49 Level Chicago Center
Fri 03:22:05 PM 40.6289 -89.7128 29° Northeast 168 193 7,500  Descending Chicago Center
Fri 03:23:06 PM 40.6686 -89.6817 31° Northeast 168 193 7,600  Climbing Chicago Center
Fri 03:24:08 PM 40.7086 -89.6497 31° Northeast 169 194 7,500  Descending Chicago Center
Fri 03:25:09 PM 40.7483 -89.6181 31° Northeast 168 193 7,600  Climbing Chicago Center
Fri 03:26:11 PM 40.7969 -89.5814 30° Northeast 169 194 7,500 -49 Descending Chicago Center
Fri 03:27:12 PM 40.8364 -89.5508 30° Northeast 167 192 7,500  Level Chicago Center
Fri 03:28:14 PM 40.8775 -89.5203 29° Northeast 167 192 7,500  Level Chicago Center
Fri 03:29:15 PM 40.9186 -89.4906 29° Northeast 169 194 7,500  Level Chicago Center
Fri 03:30:17 PM 40.9600 -89.4592 30° Northeast 170 196 7,500  Level Chicago Center
Fri 03:31:18 PM 41.0011 -89.4283 30° Northeast 170 196 7,500  Level Chicago Center
Fri 03:32:20 PM 41.0428 -89.3983 29° Northeast 170 196 7,500  Level Chicago Center
Fri 03:33:21 PM 41.0831 -89.3664 31° Northeast 170 196 7,500 49 Level Chicago Center
Fri 03:34:23 PM 41.1319 -89.3264 32° Northeast 171 197 7,600 49 Climbing Chicago Center
Fri 03:35:24 PM 41.1731 -89.2925 32° Northeast 173 199 7,600 -49 Level Chicago Center
Fri 03:36:26 PM 41.2150 -89.2622 29° Northeast 173 199 7,500  Descending Chicago Center
Fri 03:37:27 PM 41.2569 -89.2314 29° Northeast 172 198 7,600 -49 Climbing Chicago Center
Fri 03:38:29 PM 41.2989 -89.1994 30° Northeast 173 199 7,400 -244 Descending Chicago Center
Fri 03:39:30 PM 41.3414 -89.1658 31° Northeast 177 204 7,100 -244 Descending Chicago Center
Fri 03:40:32 PM 41.3869 -89.1347 27° Northeast 180 207 6,900 -293 Descending Chicago Center
Fri 03:41:33 PM 41.4392 -89.0933 31° Northeast 182 209 6,500 -341 Descending Chicago Center
Fri 03:42:35 PM 41.4847 -89.0597 29° Northeast 184 212 6,200 -244 Descending Chicago Center
Fri 03:43:36 PM 41.5269 -89.0236 33° Northeast 182 209 6,000 -293 Descending Chicago Center
Fri 03:44:38 PM 41.5731 -88.9897 29° Northeast 185 213 5,600 -390 Descending Chicago Center
Fri 03:45:39 PM 41.6158 -88.9547 31° Northeast 182 209 5,200 -293 Descending Chicago Center
Fri 03:46:41 PM 41.6558 -88.9164 36° Northeast 178 205 5,000 -194 Descending Chicago Center

Login

Don't have an account? Register now (free) for customized features, flight alerts, and more!